Guymon Municipal Airport
KGUY : now visible

Airfield :











YOU CAN JOIN US ON...

 
LOGIN :

Register | Disclaimer

   EN    FR    IT 

 









Legend :    VFR   Marginal VFR   IFR   Intensive IFR   Very Intensive IFR
Visi :
Ceiling :
>= 8 km
>= 3000ft
5 to 8 km
1000 to 3000 ft
1500m to 5 km
500 to 1000 ft
800 to 1500m
200 to 500 ft
< 800m
< 200 ft
Symbols :   Thunderstorms  Fog  Heavy snow  Heavy precipitations  Wind > 20 kt






- Airport Elevation : 3123 ft


KGUY - Guymon Municipal

CURRENT METAR :
  • 042153Z AUTO 32017G24KT 8SM FEW028 21/M02 A2976 RMK AO2 PK WND 18029/2140 WSHFT 2138 PRESRR SLP061 T02061017

EXPIRED METARs :
  • 042053Z AUTO 18019KT 10SM OVC120 20/M02 A2973 RMK AO2 PK WND 14027/1959 SLP050 T02001017 56046
  • 041953Z AUTO 16019G27KT 10SM FEW120 22/M02 A2976 RMK AO2 PK WND 15027/1951 PRESFR SLP056 T02171017
  • 041853Z AUTO 15014G24KT 10SM CLR 19/M03 A2982 RMK AO2 PRESFR SLP081 T01941033

TAF KGUY
Valid from the 04 at 18:00 until the 05 at 18:00 UTC


041740Z 0418/0518 17012KT P6SM BKN110
FM042300 22018G30KT P6SM SKC
FM050100 30015KT P6SM FEW110
FM051200 03020G35KT P6SM -SHRA SCT005 BKN010
KZKC FIR / North America



MET'MAP, your aeronautical weather chart ! - Copyright ORBIFLY December 2007 - Disclaimer

ORBIFLY MET'MAP TEAM :

Programming & Development : Alexandra Zaïnal
Concept & original design : Baudouin d'Aumeries
Assistance for programming : Marc-Olivier Méhu
Technical & hardware support : Manuel Goepfert

Contact : metmap@orbifly.com




SOURCES & CREDITS :

   NOAA       Earth
Advisory